sensor_id;sensor_type;location;lat;lon;timestamp;pressure;altitude;pressure_sealevel;temperature;humidity
37764;BME280;23602;51.084;7.090;2023-03-21T00:01:53;100291.88;;;8.10;100.00
37764;BME280;23602;51.084;7.090;2023-03-21T00:04:20;100298.22;;;8.09;100.00
37764;BME280;23602;51.084;7.090;2023-03-21T00:06:48;100297.22;;;8.10;100.00
37764;BME280;23602;51.084;7.090;2023-03-21T00:09:21;100301.53;;;8.11;100.00
37764;BME280;23602;51.084;7.090;2023-03-21T00:11:56;100297.22;;;8.10;100.00
37764;BME280;23602;51.084;7.090;2023-03-21T00:14:25;100304.03;;;8.13;100.00
37764;BME280;23602;51.084;7.090;2023-03-21T00:17:05;100291.50;;;8.13;100.00
37764;BME280;23602;51.084;7.090;2023-03-21T00:19:34;100287.50;;;8.09;100.00
37764;BME280;23602;51.084;7.090;2023-03-21T00:22:13;100291.03;;;8.10;100.00
37764;BME280;23602;51.084;7.090;2023-03-21T00:24:42;100286.50;;;8.10;100.00
37764;BME280;23602;51.084;7.090;2023-03-21T00:27:18;100282.78;;;8.11;100.00
37764;BME280;23602;51.084;7.090;2023-03-21T00:29:46;100281.16;;;8.10;100.00
37764;BME280;23602;51.084;7.090;2023-03-21T00:32:13;100270.44;;;8.10;100.00
37764;BME280;23602;51.084;7.090;2023-03-21T00:34:44;100271.91;;;8.13;100.00
37764;BME280;23602;51.084;7.090;2023-03-21T00:37:12;100268.22;;;8.14;100.00
37764;BME280;23602;51.084;7.090;2023-03-21T00:39:48;100264.72;;;8.13;100.00
37764;BME280;23602;51.084;7.090;2023-03-21T00:42:34;100261.38;;;8.11;100.00
37764;BME280;23602;51.084;7.090;2023-03-21T00:45:00;100258.72;;;8.11;100.00
37764;BME280;23602;51.084;7.090;2023-03-21T00:47:44;100238.50;;;8.09;100.00
37764;BME280;23602;51.084;7.090;2023-03-21T00:50:12;100244.13;;;8.14;100.00
37764;BME280;23602;51.084;7.090;2023-03-21T00:52:39;100251.97;;;8.15;100.00
37764;BME280;23602;51.084;7.090;2023-03-21T00:55:08;100243.31;;;8.13;100.00
37764;BME280;23602;51.084;7.090;2023-03-21T00:57:37;100237.97;;;8.13;100.00
37764;BME280;23602;51.084;7.090;2023-03-21T01:00:02;100239.81;;;8.13;100.00
37764;BME280;23602;51.084;7.090;2023-03-21T01:02:31;100239.97;;;8.11;100.00
37764;BME280;23602;51.084;7.090;2023-03-21T01:05:08;100244.53;;;8.11;100.00
37764;BME280;23602;51.084;7.090;2023-03-21T01:07:35;100245.31;;;8.11;100.00
37764;BME280;23602;51.084;7.090;2023-03-21T01:10:13;100236.66;;;8.09;100.00
37764;BME280;23602;51.084;7.090;2023-03-21T01:12:49;100237.28;;;8.11;100.00
37764;BME280;23602;51.084;7.090;2023-03-21T01:15:25;100231.13;;;8.11;100.00
37764;BME280;23602;51.084;7.090;2023-03-21T01:17:53;100232.16;;;8.10;100.00
37764;BME280;23602;51.084;7.090;2023-03-21T01:20:21;100232.97;;;8.10;100.00
37764;BME280;23602;51.084;7.090;2023-03-21T01:22:47;100235.66;;;8.10;100.00
37764;BME280;23602;51.084;7.090;2023-03-21T01:25:14;100233.81;;;8.11;100.00
37764;BME280;23602;51.084;7.090;2023-03-21T01:27:49;100232.16;;;8.10;100.00
37764;BME280;23602;51.084;7.090;2023-03-21T01:30:18;100238.34;;;8.10;100.00
37764;BME280;23602;51.084;7.090;2023-03-21T01:32:50;100241.19;;;8.09;100.00
37764;BME280;23602;51.084;7.090;2023-03-21T01:35:15;100239.72;;;8.06;100.00
37764;BME280;23602;51.084;7.090;2023-03-21T01:37:41;100243.22;;;8.07;100.00
37764;BME280;23602;51.084;7.090;2023-03-21T01:42:58;100247.56;;;8.08;100.00
37764;BME280;23602;51.084;7.090;2023-03-21T01:48:10;100234.38;;;8.06;100.00
37764;BME280;23602;51.084;7.090;2023-03-21T01:50:46;100234.19;;;8.08;100.00
37764;BME280;23602;51.084;7.090;2023-03-21T01:53:27;100235.03;;;8.08;100.00
37764;BME280;23602;51.084;7.090;2023-03-21T01:56:11;100230.88;;;8.06;100.00
37764;BME280;23602;51.084;7.090;2023-03-21T01:58:37;100221.38;;;8.03;100.00
37764;BME280;23602;51.084;7.090;2023-03-21T02:01:05;100192.22;;;8.08;100.00
37764;BME280;23602;51.084;7.090;2023-03-21T02:03:31;100195.50;;;8.10;100.00
37764;BME280;23602;51.084;7.090;2023-03-21T02:06:05;100205.38;;;8.10;100.00
37764;BME280;23602;51.084;7.090;2023-03-21T02:08:33;100192.59;;;8.05;100.00
37764;BME280;23602;51.084;7.090;2023-03-21T02:10:59;100197.56;;;8.08;100.00
37764;BME280;23602;51.084;7.090;2023-03-21T02:13:25;100192.84;;;8.10;100.00
37764;BME280;23602;51.084;7.090;2023-03-21T02:15:57;100186.28;;;8.13;100.00
37764;BME280;23602;51.084;7.090;2023-03-21T02:23:32;100170.00;;;8.14;100.00
37764;BME280;23602;51.084;7.090;2023-03-21T02:26:19;100171.84;;;8.14;100.00
37764;BME280;23602;51.084;7.090;2023-03-21T02:28:57;100167.72;;;8.11;100.00
37764;BME280;23602;51.084;7.090;2023-03-21T02:37:03;100154.41;;;8.18;100.00
37764;BME280;23602;51.084;7.090;2023-03-21T02:39:37;100144.56;;;8.25;100.00
37764;BME280;23602;51.084;7.090;2023-03-21T02:47:01;100146.06;;;8.27;100.00
37764;BME280;23602;51.084;7.090;2023-03-21T02:51:52;100143.56;;;8.26;100.00
37764;BME280;23602;51.084;7.090;2023-03-21T02:54:20;100150.75;;;8.25;100.00
37764;BME280;23602;51.084;7.090;2023-03-21T02:56:47;100149.91;;;8.25;100.00
37764;BME280;23602;51.084;7.090;2023-03-21T02:59:13;100160.84;;;8.23;100.00
37764;BME280;23602;51.084;7.090;2023-03-21T03:01:39;100164.31;;;8.24;100.00
37764;BME280;23602;51.084;7.090;2023-03-21T03:04:16;100163.69;;;8.22;100.00
37764;BME280;23602;51.084;7.090;2023-03-21T03:06:45;100158.53;;;8.20;100.00
37764;BME280;23602;51.084;7.090;2023-03-21T03:11:40;100145.75;;;8.16;100.00
37764;BME280;23602;51.084;7.090;2023-03-21T03:14:08;100160.34;;;8.13;100.00
37764;BME280;23602;51.084;7.090;2023-03-21T03:16:47;100154.31;;;8.11;100.00
37764;BME280;23602;51.084;7.090;2023-03-21T03:19:14;100157.22;;;8.10;100.00
37764;BME280;23602;51.084;7.090;2023-03-21T03:21:50;100160.72;;;8.10;100.00
37764;BME280;23602;51.084;7.090;2023-03-21T03:24:21;100167.47;;;8.06;100.00
37764;BME280;23602;51.084;7.090;2023-03-21T03:26:56;100168.28;;;8.07;100.00
37764;BME280;23602;51.084;7.090;2023-03-21T03:29:23;100162.94;;;8.07;100.00
37764;BME280;23602;51.084;7.090;2023-03-21T03:31:52;100165.63;;;8.07;100.00
37764;BME280;23602;51.084;7.090;2023-03-21T03:34:21;100157.78;;;8.05;100.00
37764;BME280;23602;51.084;7.090;2023-03-21T03:36:49;100157.16;;;8.03;100.00
37764;BME280;23602;51.084;7.090;2023-03-21T03:39:20;100158.34;;;8.01;100.00
37764;BME280;23602;51.084;7.090;2023-03-21T03:41:49;100155.88;;;7.99;100.00
37764;BME280;23602;51.084;7.090;2023-03-21T03:44:16;100155.03;;;7.99;100.00
37764;BME280;23602;51.084;7.090;2023-03-21T03:46:46;100149.03;;;7.90;100.00
37764;BME280;23602;51.084;7.090;2023-03-21T03:49:25;100141.50;;;7.79;100.00
37764;BME280;23602;51.084;7.090;2023-03-21T03:51:54;100143.66;;;7.69;100.00
37764;BME280;23602;51.084;7.090;2023-03-21T03:54:26;100141.69;;;7.56;100.00
37764;BME280;23602;51.084;7.090;2023-03-21T03:56:53;100133.72;;;7.42;100.00
37764;BME280;23602;51.084;7.090;2023-03-21T03:59:18;100140.19;;;7.33;100.00
37764;BME280;23602;51.084;7.090;2023-03-21T04:01:49;100141.97;;;7.26;100.00
37764;BME280;23602;51.084;7.090;2023-03-21T04:04:15;100138.38;;;7.19;100.00
37764;BME280;23602;51.084;7.090;2023-03-21T04:06:41;100141.22;;;7.17;100.00
37764;BME280;23602;51.084;7.090;2023-03-21T04:09:07;100141.44;;;7.16;100.00
37764;BME280;23602;51.084;7.090;2023-03-21T04:11:33;100143.38;;;7.07;100.00
37764;BME280;23602;51.084;7.090;2023-03-21T04:13:58;100156.94;;;7.06;100.00
37764;BME280;23602;51.084;7.090;2023-03-21T04:16:24;100156.47;;;7.02;100.00
37764;BME280;23602;51.084;7.090;2023-03-21T04:18:49;100148.28;;;7.04;100.00
37764;BME280;23602;51.084;7.090;2023-03-21T04:21:16;100150.38;;;7.08;100.00
37764;BME280;23602;51.084;7.090;2023-03-21T04:23:41;100155.78;;;7.15;100.00
37764;BME280;23602;51.084;7.090;2023-03-21T04:26:07;100152.13;;;7.16;100.00
37764;BME280;23602;51.084;7.090;2023-03-21T04:28:32;100146.22;;;7.20;100.00
37764;BME280;23602;51.084;7.090;2023-03-21T04:31:00;100150.56;;;7.21;100.00
37764;BME280;23602;51.084;7.090;2023-03-21T04:33:25;100150.19;;;7.24;100.00
37764;BME280;23602;51.084;7.090;2023-03-21T04:35:51;100146.94;;;7.29;100.00
37764;BME280;23602;51.084;7.090;2023-03-21T04:38:21;100137.13;;;7.36;100.00
37764;BME280;23602;51.084;7.090;2023-03-21T04:40:46;100138.16;;;7.35;100.00
37764;BME280;23602;51.084;7.090;2023-03-21T04:43:12;100135.47;;;7.35;100.00
37764;BME280;23602;51.084;7.090;2023-03-21T04:45:37;100132.44;;;7.38;100.00
37764;BME280;23602;51.084;7.090;2023-03-21T04:48:03;100131.41;;;7.39;100.00
37764;BME280;23602;51.084;7.090;2023-03-21T04:50:28;100105.78;;;7.44;100.00
37764;BME280;23602;51.084;7.090;2023-03-21T04:52:54;100103.53;;;7.48;100.00
37764;BME280;23602;51.084;7.090;2023-03-21T04:55:19;100094.97;;;7.52;100.00
37764;BME280;23602;51.084;7.090;2023-03-21T04:57:45;100092.09;;;7.54;100.00
37764;BME280;23602;51.084;7.090;2023-03-21T05:00:11;100096.03;;;7.58;100.00
37764;BME280;23602;51.084;7.090;2023-03-21T05:02:38;100097.06;;;7.57;100.00
37764;BME280;23602;51.084;7.090;2023-03-21T05:05:04;100097.91;;;7.57;100.00
37764;BME280;23602;51.084;7.090;2023-03-21T05:07:29;100097.06;;;7.57;100.00
37764;BME280;23602;51.084;7.090;2023-03-21T05:09:56;100101.19;;;7.59;100.00
37764;BME280;23602;51.084;7.090;2023-03-21T05:12:22;100102.03;;;7.60;100.00
37764;BME280;23602;51.084;7.090;2023-03-21T05:14:47;100102.03;;;7.60;100.00
37764;BME280;23602;51.084;7.090;2023-03-21T05:17:12;100100.38;;;7.59;100.00
37764;BME280;23602;51.084;7.090;2023-03-21T05:19:39;100102.66;;;7.62;100.00
37764;BME280;23602;51.084;7.090;2023-03-21T05:22:07;100099.78;;;7.63;100.00
37764;BME280;23602;51.084;7.090;2023-03-21T05:24:32;100098.81;;;7.71;100.00
37764;BME280;23602;51.084;7.090;2023-03-21T05:26:59;100105.00;;;7.72;100.00
37764;BME280;23602;51.084;7.090;2023-03-21T05:29:27;100098.44;;;7.74;100.00
37764;BME280;23602;51.084;7.090;2023-03-21T05:31:52;100107.47;;;7.73;100.00
37764;BME280;23602;51.084;7.090;2023-03-21T05:34:18;100109.59;;;7.78;100.00
37764;BME280;23602;51.084;7.090;2023-03-21T05:36:44;100103.03;;;7.80;100.00
37764;BME280;23602;51.084;7.090;2023-03-21T05:39:09;100109.84;;;7.83;100.00
37764;BME280;23602;51.084;7.090;2023-03-21T05:41:35;100103.47;;;7.84;100.00
37764;BME280;23602;51.084;7.090;2023-03-21T05:44:00;100104.09;;;7.86;100.00
37764;BME280;23602;51.084;7.090;2023-03-21T05:46:26;100110.09;;;7.88;100.00
37764;BME280;23602;51.084;7.090;2023-03-21T05:48:51;100108.06;;;7.90;100.00
37764;BME280;23602;51.084;7.090;2023-03-21T05:51:16;100106.63;;;7.94;100.00
37764;BME280;23602;51.084;7.090;2023-03-21T05:53:42;100107.84;;;7.91;100.00
37764;BME280;23602;51.084;7.090;2023-03-21T05:56:07;100114.66;;;7.94;100.00
37764;BME280;23602;51.084;7.090;2023-03-21T05:58:33;100111.81;;;7.95;100.00
37764;BME280;23602;51.084;7.090;2023-03-21T06:01:00;100117.56;;;7.99;100.00
37764;BME280;23602;51.084;7.090;2023-03-21T06:03:26;100117.41;;;8.00;100.00
37764;BME280;23602;51.084;7.090;2023-03-21T06:05:51;100106.50;;;8.02;100.00
37764;BME280;23602;51.084;7.090;2023-03-21T06:08:16;100104.66;;;8.02;100.00
37764;BME280;23602;51.084;7.090;2023-03-21T06:10:41;100099.53;;;8.07;100.00
37764;BME280;23602;51.084;7.090;2023-03-21T06:13:09;100097.50;;;8.09;100.00
37764;BME280;23602;51.084;7.090;2023-03-21T06:15:35;100092.75;;;8.11;100.00
37764;BME280;23602;51.084;7.090;2023-03-21T06:18:00;100093.44;;;8.13;100.00
37764;BME280;23602;51.084;7.090;2023-03-21T06:20:26;100101.63;;;8.12;100.00
37764;BME280;23602;51.084;7.090;2023-03-21T06:22:52;100106.16;;;8.11;100.00
37764;BME280;23602;51.084;7.090;2023-03-21T06:25:17;100112.34;;;8.12;100.00
37764;BME280;23602;51.084;7.090;2023-03-21T06:27:42;100120.59;;;8.17;100.00
37764;BME280;23602;51.084;7.090;2023-03-21T06:30:08;100126.59;;;8.19;100.00
37764;BME280;23602;51.084;7.090;2023-03-21T06:32:33;100118.75;;;8.17;100.00
37764;BME280;23602;51.084;7.090;2023-03-21T06:34:59;100127.25;;;8.21;100.00
37764;BME280;23602;51.084;7.090;2023-03-21T06:37:24;100129.25;;;8.19;100.00
37764;BME280;23602;51.084;7.090;2023-03-21T06:39:51;100137.13;;;8.20;100.00
37764;BME280;23602;51.084;7.090;2023-03-21T06:42:16;100137.75;;;8.22;100.00
37764;BME280;23602;51.084;7.090;2023-03-21T06:44:41;100145.84;;;8.29;100.00
37764;BME280;23602;51.084;7.090;2023-03-21T06:47:07;100139.47;;;8.30;100.00
37764;BME280;23602;51.084;7.090;2023-03-21T06:49:32;100148.78;;;8.34;100.00
37764;BME280;23602;51.084;7.090;2023-03-21T06:51:58;100150.22;;;8.37;100.00
37764;BME280;23602;51.084;7.090;2023-03-21T06:54:23;100150.06;;;8.38;100.00
37764;BME280;23602;51.084;7.090;2023-03-21T06:56:49;100146.34;;;8.39;100.00
37764;BME280;23602;51.084;7.090;2023-03-21T06:59:15;100150.69;;;8.40;100.00
37764;BME280;23602;51.084;7.090;2023-03-21T07:01:40;100150.47;;;8.42;100.00
37764;BME280;23602;51.084;7.090;2023-03-21T07:04:07;100147.16;;;8.40;100.00
37764;BME280;23602;51.084;7.090;2023-03-21T07:06:32;100138.38;;;8.46;100.00
37764;BME280;23602;51.084;7.090;2023-03-21T07:08:58;100126.59;;;8.47;100.00
37764;BME280;23602;51.084;7.090;2023-03-21T07:11:23;100122.53;;;8.51;100.00
37764;BME280;23602;51.084;7.090;2023-03-21T07:13:49;100125.00;;;8.52;100.00
37764;BME280;23602;51.084;7.090;2023-03-21T07:16:14;100108.09;;;8.52;100.00
37764;BME280;23602;51.084;7.090;2023-03-21T07:18:40;100115.16;;;8.59;100.00
37764;BME280;23602;51.084;7.090;2023-03-21T07:21:05;100123.84;;;8.61;100.00
37764;BME280;23602;51.084;7.090;2023-03-21T07:23:31;100118.50;;;8.68;100.00
37764;BME280;23602;51.084;7.090;2023-03-21T07:25:56;100113.81;;;8.76;100.00
37764;BME280;23602;51.084;7.090;2023-03-21T07:28:22;100114.88;;;8.82;100.00
37764;BME280;23602;51.084;7.090;2023-03-21T07:30:51;100117.75;;;8.80;100.00
37764;BME280;23602;51.084;7.090;2023-03-21T07:33:17;100120.66;;;8.85;100.00
37764;BME280;23602;51.084;7.090;2023-03-21T07:35:42;100112.81;;;8.84;100.00
37764;BME280;23602;51.084;7.090;2023-03-21T07:38:08;100106.03;;;8.88;100.00
37764;BME280;23602;51.084;7.090;2023-03-21T07:40:33;100123.16;;;8.94;100.00
37764;BME280;23602;51.084;7.090;2023-03-21T07:43:00;100124.00;;;8.94;100.00
37764;BME280;23602;51.084;7.090;2023-03-21T07:45:25;100116.56;;;8.89;100.00
37764;BME280;23602;51.084;7.090;2023-03-21T07:47:51;100124.59;;;8.89;100.00
37764;BME280;23602;51.084;7.090;2023-03-21T07:50:17;100134.66;;;8.81;100.00
37764;BME280;23602;51.084;7.090;2023-03-21T07:52:42;100131.13;;;8.80;100.00
37764;BME280;23602;51.084;7.090;2023-03-21T07:55:07;100128.22;;;8.75;100.00
37764;BME280;23602;51.084;7.090;2023-03-21T07:57:33;100141.44;;;8.77;100.00
37764;BME280;23602;51.084;7.090;2023-03-21T07:59:58;100150.72;;;8.81;100.00
37764;BME280;23602;51.084;7.090;2023-03-21T08:02:24;100143.38;;;8.89;100.00
37764;BME280;23602;51.084;7.090;2023-03-21T08:04:52;100154.53;;;9.00;100.00
37764;BME280;23602;51.084;7.090;2023-03-21T08:07:17;100156.63;;;9.11;100.00
37764;BME280;23602;51.084;7.090;2023-03-21T08:09:43;100150.09;;;9.20;100.00
37764;BME280;23602;51.084;7.090;2023-03-21T08:12:08;100151.38;;;9.30;100.00
37764;BME280;23602;51.084;7.090;2023-03-21T08:14:34;100146.63;;;9.32;100.00
37764;BME280;23602;51.084;7.090;2023-03-21T08:17:00;100147.47;;;9.33;100.00
37764;BME280;23602;51.084;7.090;2023-03-21T08:19:26;100144.13;;;9.31;100.00
37764;BME280;23602;51.084;7.090;2023-03-21T08:21:52;100151.94;;;9.26;100.00
37764;BME280;23602;51.084;7.090;2023-03-21T08:24:18;100145.19;;;9.30;100.00
37764;BME280;23602;51.084;7.090;2023-03-21T08:26:43;100150.31;;;9.31;100.00
37764;BME280;23602;51.084;7.090;2023-03-21T08:29:13;100155.50;;;9.33;100.00
37764;BME280;23602;51.084;7.090;2023-03-21T08:31:41;100154.91;;;9.37;100.00
37764;BME280;23602;51.084;7.090;2023-03-21T08:34:09;100157.19;;;9.40;100.00
37764;BME280;23602;51.084;7.090;2023-03-21T08:36:35;100151.94;;;9.26;100.00
37764;BME280;23602;51.084;7.090;2023-03-21T08:39:01;100156.31;;;9.27;100.00
37764;BME280;23602;51.084;7.090;2023-03-21T08:41:32;100153.63;;;9.33;100.00
37764;BME280;23602;51.084;7.090;2023-03-21T08:43:58;100167.88;;;9.34;100.00
37764;BME280;23602;51.084;7.090;2023-03-21T08:46:26;100173.66;;;9.37;100.00
37764;BME280;23602;51.084;7.090;2023-03-21T08:48:52;100180.66;;;9.25;100.00
37764;BME280;23602;51.084;7.090;2023-03-21T08:51:18;100182.28;;;9.20;100.00
37764;BME280;23602;51.084;7.090;2023-03-21T08:53:44;100178.16;;;9.24;100.00
37764;BME280;23602;51.084;7.090;2023-03-21T08:56:10;100181.66;;;9.24;100.00
37764;BME280;23602;51.084;7.090;2023-03-21T08:58:35;100187.88;;;9.31;100.00
37764;BME280;23602;51.084;7.090;2023-03-21T09:01:03;100183.78;;;9.42;100.00
37764;BME280;23602;51.084;7.090;2023-03-21T09:03:29;100182.78;;;9.49;100.00
37764;BME280;23602;51.084;7.090;2023-03-21T09:05:55;100180.31;;;9.54;100.00
37764;BME280;23602;51.084;7.090;2023-03-21T09:08:20;100180.31;;;9.61;100.00
37764;BME280;23602;51.084;7.090;2023-03-21T09:10:54;100173.13;;;9.62;100.00
37764;BME280;23602;51.084;7.090;2023-03-21T09:13:23;100173.50;;;9.52;100.00
37764;BME280;23602;51.084;7.090;2023-03-21T09:15:48;100179.31;;;9.56;100.00
37764;BME280;23602;51.084;7.090;2023-03-21T09:18:17;100171.66;;;9.52;100.00
37764;BME280;23602;51.084;7.090;2023-03-21T09:20:49;100166.13;;;9.61;100.00
37764;BME280;23602;51.084;7.090;2023-03-21T09:23:17;100168.78;;;9.61;100.00
37764;BME280;23602;51.084;7.090;2023-03-21T09:25:44;100170.25;;;9.70;100.00
37764;BME280;23602;51.084;7.090;2023-03-21T09:28:09;100174.19;;;9.80;100.00
37764;BME280;23602;51.084;7.090;2023-03-21T09:30:37;100165.56;;;9.91;100.00
37764;BME280;23602;51.084;7.090;2023-03-21T09:33:03;100170.28;;;10.02;100.00
37764;BME280;23602;51.084;7.090;2023-03-21T09:35:46;100160.84;;;10.13;100.00
37764;BME280;23602;51.084;7.090;2023-03-21T09:38:11;100151.75;;;10.14;100.00
37764;BME280;23602;51.084;7.090;2023-03-21T09:48:59;100137.47;;;9.94;100.00
37764;BME280;23602;51.084;7.090;2023-03-21T09:51:27;100142.84;;;9.94;100.00
37764;BME280;23602;51.084;7.090;2023-03-21T09:53:53;100150.28;;;9.98;100.00
37764;BME280;23602;51.084;7.090;2023-03-21T09:56:19;100153.41;;;10.15;100.00
37764;BME280;23602;51.084;7.090;2023-03-21T09:58:46;100161.47;;;10.35;100.00
37764;BME280;23602;51.084;7.090;2023-03-21T10:01:27;100157.50;;;10.50;100.00
37764;BME280;23602;51.084;7.090;2023-03-21T10:04:03;100155.84;;;10.56;100.00
37764;BME280;23602;51.084;7.090;2023-03-21T10:06:32;100153.19;;;10.49;100.00
37764;BME280;23602;51.084;7.090;2023-03-21T10:09:05;100139.75;;;10.49;100.00
37764;BME280;23602;51.084;7.090;2023-03-21T10:11:53;100130.25;;;10.34;100.00
37764;BME280;23602;51.084;7.090;2023-03-21T10:14:18;100131.06;;;10.41;100.00
37764;BME280;23602;51.084;7.090;2023-03-21T10:16:49;100128.81;;;10.44;100.00
37764;BME280;23602;51.084;7.090;2023-03-21T10:19:16;100124.44;;;10.43;100.00
37764;BME280;23602;51.084;7.090;2023-03-21T10:21:50;100123.03;;;10.34;100.00
37764;BME280;23602;51.084;7.090;2023-03-21T10:24:19;100112.69;;;10.25;100.00
37764;BME280;23602;51.084;7.090;2023-03-21T10:26:46;100121.38;;;10.20;100.00
37764;BME280;23602;51.084;7.090;2023-03-21T10:29:17;100112.94;;;10.17;100.00
37764;BME280;23602;51.084;7.090;2023-03-21T10:31:46;100109.81;;;10.06;100.00
37764;BME280;23602;51.084;7.090;2023-03-21T10:34:15;100109.56;;;9.95;100.00
37764;BME280;23602;51.084;7.090;2023-03-21T10:36:52;100117.44;;;10.03;100.00
37764;BME280;23602;51.084;7.090;2023-03-21T10:39:37;100122.22;;;10.14;100.00
37764;BME280;23602;51.084;7.090;2023-03-21T10:42:11;100111.44;;;10.27;100.00
37764;BME280;23602;51.084;7.090;2023-03-21T10:44:49;100107.13;;;10.26;100.00
37764;BME280;23602;51.084;7.090;2023-03-21T10:47:21;100081.06;;;10.33;100.00
37764;BME280;23602;51.084;7.090;2023-03-21T10:49:50;100083.31;;;10.56;100.00
37764;BME280;23602;51.084;7.090;2023-03-21T10:52:19;100077.84;;;10.75;100.00
37764;BME280;23602;51.084;7.090;2023-03-21T10:54:48;100071.41;;;10.83;100.00
37764;BME280;23602;51.084;7.090;2023-03-21T10:57:18;100060.03;;;10.88;100.00
37764;BME280;23602;51.084;7.090;2023-03-21T11:02:18;100056.91;;;10.97;100.00
37764;BME280;23602;51.084;7.090;2023-03-21T11:04:47;100042.91;;;10.82;100.00
37764;BME280;23602;51.084;7.090;2023-03-21T11:07:13;100057.13;;;10.96;100.00
37764;BME280;23602;51.084;7.090;2023-03-21T11:09:56;100048.75;;;11.10;100.00
37764;BME280;23602;51.084;7.090;2023-03-21T11:12:30;100015.66;;;11.10;100.00
37764;BME280;23602;51.084;7.090;2023-03-21T11:15:13;100019.06;;;10.92;100.00
37764;BME280;23602;51.084;7.090;2023-03-21T11:17:38;100027.97;;;10.86;100.00
37764;BME280;23602;51.084;7.090;2023-03-21T11:20:06;100020.81;;;10.73;100.00
37764;BME280;23602;51.084;7.090;2023-03-21T11:22:39;100014.47;;;10.61;100.00
37764;BME280;23602;51.084;7.090;2023-03-21T11:25:18;100003.53;;;10.56;100.00
37764;BME280;23602;51.084;7.090;2023-03-21T11:28:04;100003.75;;;10.48;100.00
37764;BME280;23602;51.084;7.090;2023-03-21T11:30:33;99990.41;;;10.29;100.00
37764;BME280;23602;51.084;7.090;2023-03-21T11:33:02;99997.63;;;10.35;100.00
37764;BME280;23602;51.084;7.090;2023-03-21T11:35:37;100004.81;;;10.47;100.00
37764;BME280;23602;51.084;7.090;2023-03-21T11:38:03;100005.59;;;10.54;100.00
37764;BME280;23602;51.084;7.090;2023-03-21T11:40:35;100004.31;;;10.63;100.00
37764;BME280;23602;51.084;7.090;2023-03-21T11:43:02;99995.22;;;10.64;100.00
37764;BME280;23602;51.084;7.090;2023-03-21T11:45:34;99981.56;;;10.66;100.00
37764;BME280;23602;51.084;7.090;2023-03-21T11:48:12;99991.28;;;10.60;100.00
37764;BME280;23602;51.084;7.090;2023-03-21T11:53:21;100016.88;;;10.76;100.00
37764;BME280;23602;51.084;7.090;2023-03-21T11:56:03;100005.84;;;10.91;100.00
37764;BME280;23602;51.084;7.090;2023-03-21T11:58:36;100001.69;;;10.95;100.00
37764;BME280;23602;51.084;7.090;2023-03-21T12:06:36;99990.81;;;10.76;100.00
37764;BME280;23602;51.084;7.090;2023-03-21T12:11:57;99967.53;;;10.64;100.00
37764;BME280;23602;51.084;7.090;2023-03-21T12:14:45;99970.06;;;10.52;100.00
37764;BME280;23602;51.084;7.090;2023-03-21T12:17:20;99965.53;;;10.46;100.00
37764;BME280;23602;51.084;7.090;2023-03-21T12:22:51;99956.09;;;10.31;100.00
37764;BME280;23602;51.084;7.090;2023-03-21T12:25:28;99972.63;;;10.28;100.00
37764;BME280;23602;51.084;7.090;2023-03-21T12:33:22;99981.97;;;9.99;100.00
37764;BME280;23602;51.084;7.090;2023-03-21T12:36:15;99988.56;;;10.03;100.00
37764;BME280;23602;51.084;7.090;2023-03-21T12:41:25;99988.19;;;9.93;100.00
37764;BME280;23602;51.084;7.090;2023-03-21T12:51:32;99999.53;;;9.95;100.00
37764;BME280;23602;51.084;7.090;2023-03-21T12:57:12;99988.78;;;10.01;100.00
37764;BME280;23602;51.084;7.090;2023-03-21T12:59:18;99992.88;;;10.24;100.00
37764;BME280;23602;51.084;7.090;2023-03-21T13:01:45;99985.84;;;10.29;100.00
37764;BME280;23602;51.084;7.090;2023-03-21T13:04:54;99956.09;;;10.31;100.00
37764;BME280;23602;51.084;7.090;2023-03-21T13:07:01;99958.78;;;10.37;100.00
37764;BME280;23602;51.084;7.090;2023-03-21T13:09:33;99967.16;;;10.54;100.00
37764;BME280;23602;51.084;7.090;2023-03-21T13:12:02;99964.19;;;10.68;100.00
37764;BME280;23602;51.084;7.090;2023-03-21T13:14:32;99948.84;;;10.75;100.00
37764;BME280;23602;51.084;7.090;2023-03-21T13:17:05;99940.44;;;10.97;100.00
37764;BME280;23602;51.084;7.090;2023-03-21T13:22:29;99918.59;;;10.87;100.00
37764;BME280;23602;51.084;7.090;2023-03-21T13:25:02;99935.13;;;10.90;100.00
37764;BME280;23602;51.084;7.090;2023-03-21T13:27:29;99915.91;;;10.87;100.00
37764;BME280;23602;51.084;7.090;2023-03-21T13:30:05;99904.16;;;10.81;100.00
37764;BME280;23602;51.084;7.090;2023-03-21T13:32:37;99896.69;;;10.83;100.00
37764;BME280;23602;51.084;7.090;2023-03-21T13:37:52;99891.78;;;10.80;100.00
37764;BME280;23602;51.084;7.090;2023-03-21T13:42:49;99875.56;;;10.55;100.00
37764;BME280;23602;51.084;7.090;2023-03-21T13:45:27;99857.56;;;10.62;100.00
37764;BME280;23602;51.084;7.090;2023-03-21T13:47:54;99879.84;;;10.69;100.00
37764;BME280;23602;51.084;7.090;2023-03-21T13:50:25;99881.09;;;10.67;100.00
37764;BME280;23602;51.084;7.090;2023-03-21T13:55:26;99863.91;;;10.74;100.00
37764;BME280;23602;51.084;7.090;2023-03-21T13:57:52;99851.63;;;10.85;100.00
37764;BME280;23602;51.084;7.090;2023-03-21T14:00:27;99840.63;;;10.87;100.00
37764;BME280;23602;51.084;7.090;2023-03-21T14:02:57;99837.41;;;11.03;100.00
37764;BME280;23602;51.084;7.090;2023-03-21T14:05:24;99823.38;;;11.01;100.00
37764;BME280;23602;51.084;7.090;2023-03-21T14:07:52;99821.47;;;11.01;100.00
37764;BME280;23602;51.084;7.090;2023-03-21T14:10:21;99843.28;;;11.18;100.00
37764;BME280;23602;51.084;7.090;2023-03-21T14:12:47;99814.69;;;10.99;100.00
37764;BME280;23602;51.084;7.090;2023-03-21T14:17:47;99800.53;;;11.10;100.00
37764;BME280;23602;51.084;7.090;2023-03-21T14:20:23;99797.41;;;10.88;100.00